Time;durP1;ratioP1;P1;durP2;ratioP2;P2;SDS_P1;SDS_P2;PMS_P1;PMS_P2;Temp;Humidity;BMP_temperature;BMP_pressure;BME280_temperature;BME280_humidity;BME280_pressure;Samples;Min_cycle;Max_cycle;Signal;HPM_P1;HPM_P2
2021/05/24 11:28:13;;;;;;;20.00;18.90;;;13.50;99.90;;;;;;4905156;29;21883;-75
2021/05/24 11:30:40;;;;;;;19.30;18.27;;;13.30;99.90;;;;;;4940635;28;21007;-75
2021/05/24 11:33:36;;;;;;;19.60;18.40;;;13.30;99.90;;;;;;4993854;28;20458;-72
2021/05/24 11:36:04;;;;;;;18.60;17.60;;;13.20;99.90;;;;;;4996101;28;20612;-74
2021/05/24 11:38:30;;;;;;;18.30;17.00;;;13.40;99.90;;;;;;4994165;28;20548;-73
2021/05/24 11:41:14;;;;;;;18.00;16.90;;;13.40;99.90;;;;;;4997904;28;21219;-73
2021/05/24 11:43:41;;;;;;;18.07;17.07;;;13.40;99.90;;;;;;4997840;28;20476;-73
2021/05/24 11:46:09;;;;;;;16.67;15.77;;;13.30;99.90;;;;;;4995804;28;20473;-73
2021/05/24 11:48:40;;;;;;;16.43;15.63;;;13.40;99.90;;;;;;4994256;28;20521;-73
2021/05/24 11:51:10;;;;;;;16.70;15.90;;;13.50;99.90;;;;;;4994314;28;20564;-73
2021/05/24 11:53:37;;;;;;;17.30;16.40;;;13.60;99.90;;;;;;4996760;28;20458;-75
2021/05/24 11:56:11;;;;;;;16.53;15.73;;;13.60;99.90;;;;;;4992926;28;20907;-75
2021/05/24 11:59:00;;;;;;;16.57;15.77;;;13.70;99.90;;;;;;4998111;28;20476;-73
2021/05/24 12:01:28;;;;;;;17.00;16.20;;;13.80;99.90;;;;;;4999515;28;20549;-74
2021/05/24 12:03:55;;;;;;;16.87;15.87;;;13.80;99.90;;;;;;4994469;28;20465;-74
2021/05/24 12:06:23;;;;;;;17.07;16.27;;;13.80;99.90;;;;;;4996052;28;20544;-73
2021/05/24 12:08:50;;;;;;;17.30;16.40;;;13.80;99.90;;;;;;4995154;28;20511;-73
2021/05/24 12:11:18;;;;;;;17.47;16.57;;;13.80;99.90;;;;;;4997057;28;20465;-74
2021/05/24 12:13:59;;;;;;;16.80;16.00;;;13.90;99.90;;;;;;4995975;28;20473;-75
2021/05/24 12:16:25;;;;;;;15.97;15.17;;;14.10;99.90;;;;;;4995000;28;20813;-73
2021/05/24 12:18:53;;;;;;;16.23;15.20;;;14.50;99.90;;;;;;4991535;28;20454;-74
2021/05/24 12:21:39;;;;;;;16.70;15.80;;;14.50;99.90;;;;;;4996426;28;20472;-73
2021/05/24 12:24:08;;;;;;;15.60;14.83;;;14.60;99.90;;;;;;4996353;28;20557;-74
2021/05/24 12:26:36;;;;;;;15.87;15.07;;;14.90;99.90;;;;;;4990181;28;20699;-76
2021/05/24 12:29:04;;;;;;;16.43;15.63;;;15.10;99.90;;;;;;4999240;28;20498;-74
2021/05/24 12:31:32;;;;;;;16.23;15.43;;;15.20;99.90;;;;;;4992352;28;20544;-74
2021/05/24 12:34:00;;;;;;;16.57;15.77;;;15.20;99.90;;;;;;4993958;28;20473;-75
2021/05/24 12:36:34;;;;;;;17.00;16.20;;;15.20;99.90;;;;;;4997941;28;20996;-74
2021/05/24 12:39:05;;;;;;;16.40;15.60;;;15.30;99.90;;;;;;4996569;28;20456;-74
2021/05/24 12:41:33;;;;;;;16.13;15.33;;;15.60;99.90;;;;;;4998385;28;20863;-74
2021/05/24 12:44:02;;;;;;;15.83;15.10;;;15.90;99.90;;;;;;4995349;28;20808;-75
2021/05/24 12:46:29;;;;;;;15.87;15.07;;;16.20;99.90;;;;;;4995509;28;21032;-75
2021/05/24 12:48:58;;;;;;;14.43;13.73;;;16.20;99.90;;;;;;5000672;28;20552;-74
2021/05/24 12:51:26;;;;;;;13.53;12.93;;;16.20;99.90;;;;;;4997209;28;20560;-74
2021/05/24 12:53:57;;;;;;;13.20;12.60;;;16.20;99.90;;;;;;4993688;28;20466;-73
2021/05/24 12:56:36;;;;;;;12.87;12.27;;;16.40;99.90;;;;;;4996678;28;20485;-72
2021/05/24 12:59:13;;;;;;;13.03;12.43;;;16.30;99.90;;;;;;4996228;28;20458;-73
2021/05/24 13:01:41;;;;;;;13.90;13.30;;;15.90;99.90;;;;;;4997087;28;20464;-75
2021/05/24 13:04:08;;;;;;;15.17;14.47;;;15.30;99.90;;;;;;4997042;28;20476;-73
2021/05/24 13:06:36;;;;;;;15.03;14.33;;;14.50;99.90;;;;;;4998008;28;20597;-74
2021/05/24 13:09:05;;;;;;;14.17;13.57;;;14.20;99.90;;;;;;4999617;28;20488;-75
2021/05/24 13:11:48;;;;;;;14.60;14.00;;;14.20;99.90;;;;;;4999302;28;20520;-72
2021/05/24 13:14:24;;;;;;;13.90;13.30;;;14.10;99.90;;;;;;4998273;28;20462;-74
2021/05/24 13:17:12;;;;;;;13.67;13.07;;;14.10;99.90;;;;;;4998154;28;20520;-73
2021/05/24 13:20:01;;;;;;;14.17;13.57;;;14.00;99.90;;;;;;4997815;28;20466;-75
2021/05/24 13:22:58;;;;;;;14.07;13.47;;;13.80;99.90;;;;;;4996014;28;20460;-73
2021/05/24 13:30:59;;;;;;;17.27;16.37;;;13.20;99.90;;;;;;4998781;28;20446;-72
2021/05/24 13:33:31;;;;;;;18.17;17.17;;;13.10;99.90;;;;;;5000095;28;20468;-75
2021/05/24 13:35:58;;;;;;;17.60;16.70;;;12.90;99.90;;;;;;4995226;28;20584;-73
2021/05/24 13:38:24;;;;;;;21.33;20.03;;;12.70;99.90;;;;;;4996021;28;21516;-72
2021/05/24 13:40:50;;;;;;;22.07;20.80;;;12.50;99.90;;;;;;4999229;28;20461;-73
2021/05/24 13:43:18;;;;;;;21.90;20.20;;;12.40;99.90;;;;;;4993240;28;20464;-73
2021/05/24 13:45:44;;;;;;;21.20;20.00;;;12.50;99.90;;;;;;4993932;28;20875;-73
2021/05/24 13:48:11;;;;;;;20.90;19.70;;;12.60;99.90;;;;;;4993846;28;20477;-73
2021/05/24 13:50:38;;;;;;;20.77;19.57;;;12.80;99.90;;;;;;4995073;28;21074;-72
2021/05/24 13:53:04;;;;;;;19.20;18.10;;;12.90;99.90;;;;;;4994237;28;20592;-73
2021/05/24 13:55:31;;;;;;;17.70;16.77;;;13.10;99.90;;;;;;5001182;28;20983;-75
2021/05/24 13:57:58;;;;;;;19.63;18.63;;;13.30;99.90;;;;;;4995030;28;20466;-72
2021/05/24 14:00:30;;;;;;;19.47;18.27;;;13.30;99.90;;;;;;4989515;28;20472;-73
2021/05/24 14:02:57;;;;;;;21.20;19.93;;;13.30;99.90;;;;;;4996808;28;20512;-73
2021/05/24 14:05:23;;;;;;;21.07;19.77;;;13.10;99.90;;;;;;4993246;28;20526;-75
2021/05/24 14:07:53;;;;;;;20.30;19.03;;;13.10;99.90;;;;;;4995053;28;20539;-77
2021/05/24 14:10:19;;;;;;;19.50;18.30;;;13.00;99.90;;;;;;4995484;28;20465;-75
2021/05/24 14:12:58;;;;;;;18.20;17.10;;;12.90;99.90;;;;;;4996434;28;20824;-75
2021/05/24 14:15:25;;;;;;;16.13;15.33;;;13.20;99.90;;;;;;4997876;28;20465;-77
2021/05/24 14:17:53;;;;;;;15.97;15.07;;;13.40;99.90;;;;;;4988122;28;20465;-74
2021/05/24 14:20:19;;;;;;;16.27;15.33;;;13.90;99.90;;;;;;4997196;28;20549;-74
2021/05/24 14:22:46;;;;;;;15.23;14.33;;;13.90;99.90;;;;;;4998185;28;20479;-75
2021/05/24 14:25:28;;;;;;;15.17;14.27;;;14.40;99.90;;;;;;4999639;28;21031;-75
2021/05/24 14:27:55;;;;;;;14.97;13.73;;;14.90;99.90;;;;;;4995052;28;21184;-75
2021/05/24 14:33:51;;;;;;;15.53;14.73;;;15.30;99.90;;;;;;4928143;29;21038;-74
2021/05/24 14:37:05;;;;;;;16.90;16.10;;;15.40;99.90;;;;;;4985854;28;21007;-75
2021/05/24 14:39:32;;;;;;;15.70;14.90;;;15.50;99.90;;;;;;4995559;28;20815;-74
2021/05/24 14:41:58;;;;;;;16.43;15.63;;;15.80;99.90;;;;;;4997339;28;20556;-74
2021/05/24 14:44:24;;;;;;;15.60;14.80;;;15.70;99.90;;;;;;4994562;28;20467;-75
2021/05/24 14:46:51;;;;;;;16.33;15.43;;;15.70;99.90;;;;;;5002041;28;20824;-74
2021/05/24 14:49:19;;;;;;;16.73;15.93;;;15.70;99.90;;;;;;4993336;28;20595;-74
2021/05/24 14:51:45;;;;;;;16.20;15.40;;;15.70;99.90;;;;;;4993900;28;20496;-73
2021/05/24 14:54:14;;;;;;;17.00;16.10;;;15.60;99.90;;;;;;4996448;28;20472;-73
2021/05/24 14:56:40;;;;;;;16.27;15.47;;;15.70;99.90;;;;;;4995794;28;20520;-73
2021/05/24 14:59:06;;;;;;;16.43;15.53;;;16.00;99.90;;;;;;4995999;28;20467;-73
2021/05/24 15:01:33;;;;;;;15.30;14.60;;;16.90;99.90;;;;;;4998385;28;20477;-73
2021/05/24 15:04:00;;;;;;;14.73;13.97;;;17.80;99.90;;;;;;4999494;28;20952;-72
2021/05/24 15:06:27;;;;;;;14.30;13.70;;;18.20;99.90;;;;;;4991787;28;20547;-74
2021/05/24 15:08:53;;;;;;;14.20;13.50;;;18.50;99.90;;;;;;4993727;28;20472;-73
2021/05/24 15:11:20;;;;;;;13.67;13.07;;;18.50;99.90;;;;;;4999924;28;20462;-75
2021/05/24 15:13:46;;;;;;;13.90;13.30;;;18.70;99.90;;;;;;5001818;28;20999;-73
2021/05/24 15:16:12;;;;;;;13.40;12.80;;;18.90;99.90;;;;;;5003499;28;20489;-73
2021/05/24 15:18:39;;;;;;;13.60;13.00;;;18.70;99.90;;;;;;4992235;28;20462;-73
2021/05/24 15:21:06;;;;;;;14.80;14.17;;;18.60;99.90;;;;;;4993831;28;20476;-75
2021/05/24 15:23:33;;;;;;;13.93;13.33;;;18.40;99.90;;;;;;4992199;28;20464;-73
2021/05/24 15:26:15;;;;;;;12.80;12.30;;;18.40;99.90;;;;;;4999535;28;20725;-74
2021/05/24 15:28:43;;;;;;;13.47;12.87;;;18.80;99.90;;;;;;4998926;28;20500;-73
2021/05/24 15:31:10;;;;;;;13.00;12.30;;;19.00;99.90;;;;;;5013268;28;20495;-75
2021/05/24 15:33:51;;;;;;;13.07;12.50;;;19.20;99.90;;;;;;4995495;28;20893;-74
2021/05/24 15:36:17;;;;;;;12.90;12.40;;;19.10;99.90;;;;;;4998182;28;20485;-74
2021/05/24 15:38:45;;;;;;;13.50;12.90;;;18.70;99.90;;;;;;4996534;28;20473;-73
2021/05/24 15:41:12;;;;;;;13.50;12.90;;;18.50;99.90;;;;;;5002903;28;20521;-75
2021/05/24 15:43:38;;;;;;;13.43;12.83;;;18.30;99.90;;;;;;5001102;28;20519;-74
2021/05/24 15:46:05;;;;;;;13.27;12.67;;;18.20;99.90;;;;;;5000650;28;20913;-73
2021/05/24 15:48:32;;;;;;;12.70;12.20;;;18.80;99.90;;;;;;4997757;28;20456;-74
2021/05/24 15:50:58;;;;;;;13.67;12.87;;;19.20;99.90;;;;;;4994361;28;20466;-74
2021/05/24 15:53:25;;;;;;;13.20;12.60;;;20.00;99.90;;;;;;4998548;28;20505;-74
2021/05/24 15:55:52;;;;;;;13.77;13.07;;;20.30;99.90;;;;;;4994245;28;20990;-73
2021/05/24 15:58:23;;;;;;;13.10;12.60;;;20.70;99.90;;;;;;4992037;28;20492;-73
2021/05/24 16:00:49;;;;;;;13.23;12.70;;;21.00;99.90;;;;;;5001576;28;20515;-73
2021/05/24 16:03:16;;;;;;;13.40;12.80;;;20.80;99.90;;;;;;4996625;28;20468;-72
2021/05/24 16:05:42;;;;;;;14.00;13.33;;;20.30;99.90;;;;;;4997238;28;20941;-73
2021/05/24 16:08:09;;;;;;;13.77;13.17;;;20.90;99.90;;;;;;4999583;28;20875;-74
2021/05/24 16:10:35;;;;;;;12.50;12.00;;;20.60;99.90;;;;;;4996905;28;20844;-73
2021/05/24 16:13:05;;;;;;;14.30;13.70;;;20.20;99.90;;;;;;4990233;28;20473;-72
2021/05/24 16:15:31;;;;;;;13.57;13.07;;;21.20;99.90;;;;;;4999840;28;20957;-73
2021/05/24 16:17:59;;;;;;;13.90;13.30;;;21.10;99.90;;;;;;4999264;28;20996;-73
2021/05/24 16:20:26;;;;;;;13.37;12.77;;;20.90;99.90;;;;;;5000164;28;20493;-73
2021/05/24 16:23:02;;;;;;;14.20;13.60;;;21.30;99.80;;;;;;4996463;28;20474;-74
2021/05/24 16:25:45;;;;;;;14.43;13.67;;;21.50;98.60;;;;;;4994478;28;20549;-74
2021/05/24 16:28:12;;;;;;;14.27;13.67;;;22.50;98.80;;;;;;4994299;28;20504;-76
2021/05/24 16:30:43;;;;;;;14.40;13.80;;;23.10;96.90;;;;;;4989426;28;20482;-74
2021/05/24 16:33:53;;;;;;;13.73;13.13;;;23.70;95.40;;;;;;4998075;28;20461;-78
2021/05/24 16:36:20;;;;;;;14.87;14.17;;;23.60;95.40;;;;;;4997166;28;21016;-77
2021/05/24 16:38:46;;;;;;;14.83;14.23;;;24.00;94.60;;;;;;4995759;28;20953;-77
2021/05/24 16:41:12;;;;;;;14.50;13.87;;;24.00;94.50;;;;;;5000303;28;20466;-75
2021/05/24 16:43:40;;;;;;;13.93;13.40;;;24.00;93.70;;;;;;4999305;28;20835;-75
2021/05/24 16:47:04;;;;;;;14.20;13.60;;;24.40;91.70;;;;;;4995244;28;20469;-75
2021/05/24 16:49:30;;;;;;;15.00;14.40;;;24.30;92.50;;;;;;4999308;28;20516;-76
2021/05/24 16:51:57;;;;;;;15.20;14.60;;;23.50;92.70;;;;;;4999304;28;20489;-75
2021/05/24 16:54:24;;;;;;;15.20;14.50;;;23.60;92.30;;;;;;5003970;28;20485;-75
2021/05/24 16:56:50;;;;;;;15.67;14.97;;;24.20;92.30;;;;;;5006161;28;20477;-75
2021/05/24 16:59:18;;;;;;;14.80;14.10;;;24.70;90.80;;;;;;5001243;28;20465;-75
2021/05/24 17:01:45;;;;;;;14.63;14.03;;;24.60;89.50;;;;;;4999706;28;20965;-74
2021/05/24 17:04:11;;;;;;;14.57;13.97;;;23.90;90.20;;;;;;4999905;28;20453;-74
2021/05/24 17:06:38;;;;;;;15.57;14.70;;;22.70;90.00;;;;;;5001774;28;20569;-74
2021/05/24 17:09:05;;;;;;;14.60;14.00;;;22.00;91.30;;;;;;5005903;28;20457;-74
2021/05/24 17:11:32;;;;;;;15.60;14.90;;;21.80;91.80;;;;;;5005418;28;20583;-74
2021/05/24 17:14:02;;;;;;;15.43;14.73;;;21.40;92.20;;;;;;5000825;28;20466;-74
2021/05/24 17:16:29;;;;;;;13.80;13.30;;;21.20;92.70;;;;;;4996223;28;20487;-74
2021/05/24 17:18:59;;;;;;;15.00;14.30;;;21.20;92.10;;;;;;4996457;28;20957;-74
2021/05/24 17:21:27;;;;;;;14.57;13.97;;;21.50;92.90;;;;;;4989359;28;20501;-74
2021/05/24 17:23:54;;;;;;;17.00;16.00;;;21.50;92.50;;;;;;4995917;28;20461;-74
2021/05/24 17:26:21;;;;;;;14.57;13.87;;;21.10;92.80;;;;;;4994085;28;20469;-74
2021/05/24 17:28:47;;;;;;;14.50;13.80;;;20.90;93.00;;;;;;4993053;28;20741;-74
2021/05/24 17:31:14;;;;;;;14.40;13.70;;;20.80;93.30;;;;;;4997925;28;20469;-74
2021/05/24 17:33:42;;;;;;;14.30;13.70;;;21.20;92.90;;;;;;4991472;28;20463;-74
2021/05/24 17:36:08;;;;;;;14.40;13.70;;;21.00;93.00;;;;;;4993670;28;20536;-74
2021/05/24 17:38:35;;;;;;;14.60;13.90;;;20.90;93.10;;;;;;4995752;28;20468;-74
2021/05/24 17:41:03;;;;;;;15.20;14.50;;;20.70;93.70;;;;;;5003590;28;20490;-73
2021/05/24 17:43:30;;;;;;;14.70;14.00;;;20.10;94.20;;;;;;5002490;28;20466;-73
2021/05/24 17:45:56;;;;;;;15.03;14.37;;;19.60;95.00;;;;;;5003915;28;20480;-73
2021/05/24 17:48:23;;;;;;;14.70;14.00;;;19.40;95.40;;;;;;5006978;28;20869;-73
2021/05/24 17:50:58;;;;;;;15.00;14.00;;;18.70;96.40;;;;;;5001540;28;20461;-74
2021/05/24 17:53:25;;;;;;;14.87;14.17;;;18.30;97.00;;;;;;5002064;28;20475;-74
2021/05/24 17:55:52;;;;;;;14.50;13.90;;;17.90;97.80;;;;;;5000851;28;20462;-73
2021/05/24 17:58:21;;;;;;;14.57;13.87;;;17.60;99.00;;;;;;5003212;28;20547;-73
2021/05/24 18:00:48;;;;;;;15.07;14.27;;;17.30;99.90;;;;;;5003375;28;20543;-73
2021/05/24 18:03:15;;;;;;;14.53;13.90;;;17.50;99.90;;;;;;4999159;28;20465;-73
2021/05/24 18:05:42;;;;;;;14.73;14.13;;;17.30;99.90;;;;;;4997396;28;20584;-73
2021/05/24 18:08:10;;;;;;;14.80;14.10;;;17.10;99.90;;;;;;4994185;28;20533;-74
2021/05/24 18:10:38;;;;;;;15.07;14.27;;;17.30;99.90;;;;;;5001679;28;20527;-74
2021/05/24 18:13:07;;;;;;;14.73;14.03;;;17.20;99.90;;;;;;4998835;28;21283;-73
2021/05/24 18:15:34;;;;;;;14.40;13.70;;;17.10;99.90;;;;;;5004153;28;20481;-72
2021/05/24 18:18:06;;;;;;;14.90;14.20;;;17.00;99.90;;;;;;5001812;28;20846;-73
2021/05/24 18:20:34;;;;;;;14.47;13.77;;;16.90;99.90;;;;;;4998057;28;20516;-74
2021/05/24 18:23:01;;;;;;;14.90;14.10;;;16.90;99.90;;;;;;4996216;28;20457;-73
2021/05/24 18:25:29;;;;;;;14.70;13.90;;;16.80;99.90;;;;;;4997592;28;20582;-73
2021/05/24 18:27:56;;;;;;;14.93;14.23;;;16.50;99.90;;;;;;5000736;28;20478;-73
2021/05/24 18:30:25;;;;;;;15.13;14.23;;;16.30;99.90;;;;;;4998218;28;20601;-73
2021/05/24 18:32:54;;;;;;;14.77;14.07;;;16.30;99.90;;;;;;4998413;28;20459;-73
2021/05/24 18:35:21;;;;;;;15.20;14.50;;;16.20;99.90;;;;;;4999199;28;20469;-73
2021/05/24 18:37:50;;;;;;;14.47;13.77;;;16.10;99.90;;;;;;4996585;28;20501;-73
2021/05/24 18:40:17;;;;;;;13.60;12.80;;;16.10;99.90;;;;;;5000265;28;20553;-73
2021/05/24 18:42:45;;;;;;;13.70;12.83;;;15.80;99.90;;;;;;5002058;28;20465;-73
2021/05/24 18:45:30;;;;;;;14.00;13.40;;;14.40;99.90;;;;;;4999596;28;21259;-77
2021/05/24 18:47:56;;;;;;;15.97;15.27;;;13.00;99.90;;;;;;4999468;28;20469;-75
2021/05/24 18:50:22;;;;;;;15.40;14.70;;;11.80;99.90;;;;;;4997759;28;20469;-74
2021/05/24 18:52:49;;;;;;;20.77;19.33;;;11.30;99.90;;;;;;4999792;28;20512;-75
2021/05/24 18:55:18;;;;;;;19.30;18.30;;;10.70;99.90;;;;;;5001543;28;20483;-75
2021/05/24 18:57:45;;;;;;;18.50;17.60;;;10.40;99.90;;;;;;4997644;28;20497;-75
2021/05/24 19:00:14;;;;;;;18.77;17.77;;;10.30;99.90;;;;;;5002714;28;20467;-75
2021/05/24 19:02:46;;;;;;;18.80;17.80;;;10.10;99.90;;;;;;4999012;28;20475;-75
2021/05/24 19:07:57;;;;;;;18.40;17.50;;;9.90;99.90;;;;;;5000709;28;20897;-74
2021/05/24 19:10:24;;;;;;;17.70;16.80;;;9.90;99.90;;;;;;5002213;28;20471;-75
2021/05/24 19:12:51;;;;;;;17.93;17.03;;;9.90;99.90;;;;;;4999509;28;20499;-74
2021/05/24 19:15:18;;;;;;;17.57;16.67;;;9.90;99.90;;;;;;5000739;28;20472;-74
2021/05/24 19:17:44;;;;;;;16.93;16.13;;;9.90;99.90;;;;;;4998727;28;20528;-75
2021/05/24 19:20:12;;;;;;;17.10;16.30;;;9.90;99.90;;;;;;4995792;28;20555;-74
2021/05/24 19:22:38;;;;;;;17.03;16.23;;;9.80;99.90;;;;;;4997198;28;20529;-76
2021/05/24 19:25:07;;;;;;;16.80;16.00;;;9.90;99.90;;;;;;4997138;28;20466;-74
2021/05/24 19:27:34;;;;;;;16.60;15.80;;;9.90;99.90;;;;;;4999441;28;20466;-76
2021/05/24 19:30:02;;;;;;;16.70;15.90;;;9.90;99.90;;;;;;5000918;28;20492;-76
2021/05/24 19:32:29;;;;;;;16.80;16.00;;;9.90;99.90;;;;;;4995164;28;20500;-74
2021/05/24 19:34:55;;;;;;;17.07;16.27;;;9.90;99.90;;;;;;4999301;28;20818;-75
2021/05/24 19:37:21;;;;;;;17.17;16.37;;;9.80;99.90;;;;;;4994165;28;21258;-74
2021/05/24 19:39:48;;;;;;;16.50;15.70;;;9.80;99.90;;;;;;4994567;28;21173;-75
2021/05/24 19:42:14;;;;;;;16.50;15.70;;;9.80;99.90;;;;;;5001951;28;20471;-74
2021/05/24 19:45:06;;;;;;;15.53;14.83;;;9.80;99.90;;;;;;4999029;28;20466;-79
2021/05/24 19:48:03;;;;;;;15.60;14.90;;;9.90;99.90;;;;;;5000442;28;20462;-75
2021/05/24 20:23:59;;;;;;;16.60;15.80;;;9.40;99.90;;;;;;5004278;28;20532;-75
2021/05/24 20:26:26;;;;;;;17.07;16.27;;;9.50;99.90;;;;;;5005231;28;20979;-73
2021/05/24 20:28:56;;;;;;;16.90;16.10;;;9.50;99.90;;;;;;5004173;28;20848;-73
2021/05/24 20:31:22;;;;;;;17.17;16.37;;;9.50;99.90;;;;;;4992258;28;20465;-75
2021/05/24 20:33:49;;;;;;;17.87;16.97;;;9.50;99.90;;;;;;4993474;28;20460;-74
2021/05/24 20:36:17;;;;;;;17.50;16.70;;;9.40;99.90;;;;;;4991216;28;20542;-73
2021/05/24 20:38:43;;;;;;;17.70;16.80;;;9.40;99.90;;;;;;4990955;28;20877;-73
2021/05/24 20:41:10;;;;;;;17.97;17.07;;;9.40;99.90;;;;;;4994750;28;20516;-74
2021/05/24 20:43:37;;;;;;;18.23;17.33;;;9.30;99.90;;;;;;4994254;28;20462;-73
2021/05/24 20:46:03;;;;;;;18.53;17.63;;;9.30;99.90;;;;;;4989012;28;21254;-74
2021/05/24 20:48:30;;;;;;;18.70;17.80;;;9.30;99.90;;;;;;4991486;28;20461;-74
2021/05/24 20:50:57;;;;;;;18.80;17.90;;;9.30;99.90;;;;;;4991415;28;21502;-73
2021/05/24 20:53:24;;;;;;;18.27;17.37;;;9.40;99.90;;;;;;4986523;28;20516;-73
2021/05/24 20:55:51;;;;;;;18.90;17.90;;;9.50;99.90;;;;;;4996942;28;20468;-73
2021/05/24 20:58:19;;;;;;;18.93;17.93;;;9.50;99.90;;;;;;4991449;28;20498;-75
2021/05/24 21:00:47;;;;;;;18.60;17.60;;;9.60;99.90;;;;;;4990559;28;20461;-75
2021/05/24 21:03:14;;;;;;;18.77;17.77;;;9.60;99.90;;;;;;4990829;28;20459;-74
2021/05/24 21:05:43;;;;;;;18.73;17.83;;;9.60;99.90;;;;;;4996472;28;20484;-74
2021/05/24 21:08:11;;;;;;;18.30;17.40;;;9.70;99.90;;;;;;4984981;28;20468;-74
2021/05/24 21:10:37;;;;;;;17.97;17.07;;;9.80;99.90;;;;;;4980012;28;20976;-75
2021/05/24 21:13:03;;;;;;;17.40;16.60;;;9.90;99.90;;;;;;4980434;28;20465;-74
2021/05/24 21:15:30;;;;;;;17.57;16.77;;;10.00;99.90;;;;;;4978874;28;20881;-76
2021/05/24 21:17:57;;;;;;;16.90;16.10;;;10.00;99.90;;;;;;4978754;28;20856;-74
2021/05/24 21:20:24;;;;;;;18.23;17.20;;;10.10;99.90;;;;;;4977998;28;20806;-75
2021/05/24 21:22:51;;;;;;;18.90;17.87;;;10.10;99.90;;;;;;4980340;28;20531;-74
2021/05/24 21:25:19;;;;;;;19.00;17.80;;;10.00;99.90;;;;;;4977109;28;20502;-74
2021/05/24 21:27:46;;;;;;;19.90;18.80;;;9.90;99.90;;;;;;4986196;28;20488;-72
2021/05/24 21:30:14;;;;;;;19.60;18.40;;;9.80;99.90;;;;;;4982412;28;20579;-71
2021/05/24 21:32:44;;;;;;;19.93;18.83;;;9.70;99.90;;;;;;4990940;28;20463;-73
2021/05/24 21:35:25;;;;;;;20.00;18.60;;;9.70;99.90;;;;;;4985420;28;20493;-73
2021/05/24 21:37:52;;;;;;;19.33;18.13;;;9.70;99.90;;;;;;4977323;28;20881;-72
2021/05/24 21:40:19;;;;;;;19.60;18.40;;;9.50;99.90;;;;;;4992685;28;20475;-74
2021/05/24 21:42:46;;;;;;;18.97;17.87;;;9.40;99.90;;;;;;4978150;28;20492;-75
2021/05/24 21:45:13;;;;;;;19.00;17.90;;;9.30;99.90;;;;;;4988070;28;20527;-74
2021/05/24 21:47:39;;;;;;;18.93;17.50;;;9.20;99.90;;;;;;4995436;28;20971;-75
2021/05/24 21:50:07;;;;;;;18.97;17.97;;;9.10;99.90;;;;;;4976119;28;20473;-75
2021/05/24 21:52:34;;;;;;;17.73;16.73;;;9.10;99.90;;;;;;4977097;28;20579;-74
2021/05/24 21:55:01;;;;;;;17.97;17.07;;;8.90;99.90;;;;;;4982575;28;20981;-75
2021/05/24 21:57:29;;;;;;;17.83;16.83;;;8.90;99.90;;;;;;4989219;28;20594;-74
2021/05/24 21:59:55;;;;;;;17.60;16.70;;;8.90;99.90;;;;;;4986505;28;20462;-75
2021/05/24 22:02:21;;;;;;;17.63;16.73;;;8.90;99.90;;;;;;4984864;28;20463;-74
2021/05/24 22:04:48;;;;;;;17.53;16.53;;;8.90;99.90;;;;;;4981386;28;20526;-75
2021/05/24 22:07:14;;;;;;;16.93;16.10;;;8.90;99.90;;;;;;4977962;28;20951;-74
2021/05/24 22:09:42;;;;;;;17.37;16.47;;;8.90;99.90;;;;;;4983544;28;20464;-74
2021/05/24 22:12:09;;;;;;;16.80;16.00;;;8.90;99.90;;;;;;4982967;28;20523;-75
2021/05/24 22:14:36;;;;;;;16.50;15.70;;;8.90;99.90;;;;;;4983509;28;20491;-74
2021/05/24 22:17:02;;;;;;;16.60;15.80;;;8.90;99.90;;;;;;4979099;28;20701;-75
2021/05/24 22:19:31;;;;;;;16.53;15.73;;;8.90;99.90;;;;;;4985230;28;20523;-74
2021/05/24 22:21:59;;;;;;;16.57;15.77;;;8.80;99.90;;;;;;4984111;28;20471;-75
2021/05/24 22:24:25;;;;;;;16.13;15.33;;;8.70;99.90;;;;;;4980429;28;20465;-75
2021/05/24 22:26:51;;;;;;;16.47;15.67;;;8.70;99.90;;;;;;4980160;28;20467;-75
2021/05/24 22:29:18;;;;;;;16.40;15.50;;;8.60;99.90;;;;;;4982871;28;21018;-74
2021/05/24 22:31:45;;;;;;;16.60;15.37;;;8.60;99.90;;;;;;4989499;28;20802;-75
2021/05/24 22:34:11;;;;;;;16.40;15.50;;;8.60;99.90;;;;;;4979259;28;20840;-75
2021/05/24 22:36:38;;;;;;;15.60;14.90;;;8.70;99.90;;;;;;4983358;28;20489;-75
2021/05/24 22:39:05;;;;;;;15.33;14.63;;;8.70;99.90;;;;;;4981261;28;20459;-75
2021/05/24 22:41:32;;;;;;;15.40;14.70;;;8.60;99.90;;;;;;4980630;28;20467;-74
2021/05/24 22:43:58;;;;;;;15.17;14.37;;;8.80;99.90;;;;;;4994994;28;20986;-74
2021/05/24 22:46:25;;;;;;;14.27;13.57;;;8.80;99.90;;;;;;4984246;28;20473;-75
2021/05/24 22:48:52;;;;;;;14.97;13.97;;;8.90;99.90;;;;;;4980141;28;20455;-75
2021/05/24 22:51:18;;;;;;;14.07;13.27;;;8.90;99.90;;;;;;4983953;28;20518;-75
2021/05/24 22:53:45;;;;;;;13.37;12.67;;;9.00;99.90;;;;;;4989936;28;20482;-76
2021/05/24 22:56:11;;;;;;;14.30;13.30;;;9.00;99.90;;;;;;4984543;28;20457;-74
2021/05/24 22:58:38;;;;;;;14.17;13.47;;;9.00;99.90;;;;;;4983994;28;20947;-75
2021/05/24 23:01:04;;;;;;;14.13;13.43;;;9.10;99.90;;;;;;4982918;28;20471;-74
2021/05/24 23:03:34;;;;;;;13.37;12.67;;;9.10;99.90;;;;;;4983512;28;20469;-75
2021/05/24 23:06:02;;;;;;;13.10;12.47;;;8.90;99.90;;;;;;4971497;28;20463;-75
2021/05/24 23:08:28;;;;;;;13.20;12.60;;;8.90;99.90;;;;;;4988485;28;20554;-74
2021/05/24 23:10:55;;;;;;;12.70;12.10;;;9.00;99.90;;;;;;4984559;28;20990;-74
2021/05/24 23:13:21;;;;;;;13.27;12.60;;;8.90;99.90;;;;;;4986517;28;20494;-74
2021/05/24 23:15:47;;;;;;;13.47;12.87;;;8.90;99.90;;;;;;4984505;28;20901;-74
2021/05/24 23:18:14;;;;;;;13.10;12.40;;;8.80;99.90;;;;;;4988242;28;20506;-75
2021/05/24 23:20:40;;;;;;;12.90;12.30;;;8.80;99.90;;;;;;4975031;28;21019;-75
2021/05/24 23:23:08;;;;;;;13.70;13.00;;;8.70;99.90;;;;;;4981018;28;21068;-75
2021/05/24 23:25:35;;;;;;;13.10;12.47;;;8.60;99.90;;;;;;4991972;28;20460;-74
2021/05/24 23:28:01;;;;;;;13.30;12.60;;;8.60;99.90;;;;;;4978986;28;20474;-75
2021/05/24 23:30:28;;;;;;;13.07;12.17;;;8.60;99.90;;;;;;4996475;28;20497;-74
2021/05/24 23:32:54;;;;;;;12.90;12.20;;;8.50;99.90;;;;;;5000907;28;20458;-74
2021/05/24 23:35:20;;;;;;;13.03;12.33;;;8.50;99.90;;;;;;5000982;28;20467;-75
2021/05/24 23:37:47;;;;;;;12.70;12.00;;;8.50;99.90;;;;;;5005082;28;20508;-74
2021/05/24 23:40:15;;;;;;;13.00;12.30;;;8.50;99.90;;;;;;5004965;28;20462;-75
2021/05/24 23:42:41;;;;;;;12.97;12.17;;;8.40;99.90;;;;;;5003098;28;20466;-75
2021/05/24 23:45:09;;;;;;;12.17;11.67;;;8.40;99.90;;;;;;5004740;28;20902;-74
2021/05/24 23:47:35;;;;;;;13.70;12.87;;;8.40;99.90;;;;;;5003794;28;20532;-74
2021/05/24 23:50:03;;;;;;;12.70;12.10;;;8.40;99.90;;;;;;4998295;28;20457;-73
2021/05/24 23:52:30;;;;;;;12.30;11.50;;;8.40;99.90;;;;;;5001320;28;21050;-75
2021/05/24 23:54:58;;;;;;;12.50;11.90;;;8.30;99.90;;;;;;4997374;28;20466;-74
2021/05/24 23:57:26;;;;;;;12.57;11.97;;;8.30;99.90;;;;;;5003674;28;20512;-76
2021/05/24 23:59:52;;;;;;;11.53;11.03;;;8.30;99.90;;;;;;5003488;28;20457;-74
